Time;durP1;ratioP1;P1;durP2;ratioP2;P2;SDS_P1;SDS_P2;PMS_P1;PMS_P2;Temp;Humidity;BMP_temperature;BMP_pressure;BME280_temperature;BME280_humidity;BME280_pressure;Samples;Min_cycle;Max_cycle;Signal;HPM_P1;HPM_P2
2023/05/01 00:00:58;;;;;;;5.57;3.10;;;;;;;-143.84;42.27;45068.13;5175280;27;21125;-59
2023/05/01 00:03:25;;;;;;;5.27;3.53;;;;;;;-143.84;42.54;45079.53;5175674;27;20476;-59
2023/05/01 00:05:59;;;;;;;4.17;3.37;;;;;;;-143.84;42.82;45081.44;5173381;27;21325;-59
2023/05/01 00:08:27;;;;;;;4.73;2.60;;;;;;;-143.84;42.22;45079.53;5173296;27;20516;-60
2023/05/01 00:10:54;;;;;;;3.60;3.00;;;;;;;-143.84;42.32;45106.19;5172746;27;20437;-60
2023/05/01 00:13:23;;;;;;;5.30;3.13;;;;;;;-143.84;42.10;45075.72;5173262;27;20452;-59
2023/05/01 00:15:50;;;;;;;4.07;2.90;;;;;;;-143.84;41.73;45077.63;5162048;27;20509;-59
2023/05/01 00:18:17;;;;;;;4.17;3.03;;;;;;;-143.84;41.71;45050.97;5163685;27;20996;-60
2023/05/01 00:20:44;;;;;;;3.20;2.90;;;;;;;-143.84;41.57;45079.53;5162577;27;20840;-60
2023/05/01 00:23:13;;;;;;;11.00;2.73;;;;;;;-143.84;41.48;45094.78;5163613;27;20472;-59
2023/05/01 00:25:40;;;;;;;5.93;3.27;;;;;;;-143.84;41.51;45090.97;5161619;27;20505;-59
2023/05/01 00:28:07;;;;;;;5.33;3.00;;;;;;;-143.84;41.87;45054.78;5166340;27;20513;-59
2023/05/01 00:30:34;;;;;;;4.40;3.30;;;;;;;-143.84;41.91;45096.66;5164467;27;20509;-59
2023/05/01 00:33:02;;;;;;;4.80;3.20;;;;;;;-143.84;41.58;45066.22;5164817;27;21053;-59
2023/05/01 00:35:30;;;;;;;7.43;2.90;;;;;;;-143.84;41.67;45083.34;5162275;27;20792;-59
2023/05/01 00:37:57;;;;;;;5.33;2.90;;;;;;;-143.84;41.44;45070.00;5165595;27;20500;-59
2023/05/01 00:40:25;;;;;;;5.27;3.20;;;;;;;-143.84;41.44;45058.59;5165418;27;20441;-60
2023/05/01 00:42:52;;;;;;;6.10;3.30;;;;;;;-143.84;41.33;45052.88;5168967;27;20538;-60
2023/05/01 00:45:20;;;;;;;4.40;3.10;;;;;;;-143.84;40.86;45083.34;5171438;27;20942;-59
2023/05/01 00:47:47;;;;;;;4.20;3.37;;;;;;;-143.84;40.84;45070.00;5149434;27;20446;-59
2023/05/01 00:50:14;;;;;;;6.03;2.80;;;;;;;-143.84;41.08;45056.69;5172141;27;20449;-60
2023/05/01 00:52:42;;;;;;;5.40;3.07;;;;;;;-143.84;41.03;45077.63;5174161;27;20437;-60
2023/05/01 00:55:09;;;;;;;7.60;2.53;;;;;;;-143.84;41.18;45083.34;5173941;27;20977;-59
2023/05/01 00:57:38;;;;;;;3.00;2.50;;;;;;;-143.84;41.25;45092.88;5174270;27;20845;-59
2023/05/01 01:00:06;;;;;;;5.90;3.70;;;;;;;-143.84;41.28;45075.72;5174048;27;20513;-60
2023/05/01 01:02:33;;;;;;;3.70;2.90;;;;;;;-143.84;41.25;45073.81;5174124;27;20587;-59
2023/05/01 01:05:00;;;;;;;4.87;3.07;;;;;;;-143.84;41.39;45089.06;5173278;27;21382;-59
2023/05/01 01:07:36;;;;;;;5.13;3.23;;;;;;;-143.84;41.43;45104.28;5159619;27;20501;-59
2023/05/01 01:10:17;;;;;;;6.97;2.90;;;;;;;-143.84;41.85;45064.31;5153092;27;20949;-59
2023/05/01 01:12:54;;;;;;;5.23;3.53;;;;;;;-143.84;41.96;45073.81;5152684;27;20438;-59
2023/05/01 01:15:29;;;;;;;4.03;3.40;;;;;;;-143.84;41.99;45079.53;5153051;27;20441;-59
2023/05/01 01:18:05;;;;;;;9.23;4.33;;;;;;;-143.84;42.17;45071.91;5171269;27;20441;-59
2023/05/01 01:20:41;;;;;;;6.90;3.37;;;;;;;-143.84;42.26;45087.16;5174014;27;20515;-59
2023/05/01 01:23:32;;;;;;;5.83;3.80;;;;;;;-143.84;42.31;45060.50;5173837;27;20524;-59
2023/05/01 01:26:13;;;;;;;4.70;4.10;;;;;;;-143.84;42.23;45054.78;5173620;27;20895;-59
2023/05/01 01:28:56;;;;;;;8.83;3.77;;;;;;;-143.84;42.53;45081.44;5173347;27;20575;-60
2023/05/01 01:31:32;;;;;;;6.13;3.73;;;;;;;-143.84;42.51;45102.38;5173123;27;20497;-60
2023/05/01 01:34:08;;;;;;;4.20;3.77;;;;;;;-143.84;42.58;45087.16;5170470;27;20437;-59
2023/05/01 01:36:41;;;;;;;4.93;3.70;;;;;;;-143.84;42.69;45058.59;5151389;27;20438;-59
2023/05/01 01:39:15;;;;;;;6.03;2.90;;;;;;;-143.84;42.65;45075.72;5152197;27;20571;-59
2023/05/01 01:41:45;;;;;;;7.87;4.00;;;;;;;-143.84;42.62;45071.91;5151703;27;20524;-59
2023/05/01 01:44:20;;;;;;;3.70;3.40;;;;;;;-143.84;42.64;45083.34;5152000;27;20437;-59
2023/05/01 01:46:49;;;;;;;5.37;3.80;;;;;;;-143.84;42.54;45071.91;5158507;27;20455;-59
2023/05/01 01:49:21;;;;;;;3.83;3.53;;;;;;;-143.84;42.42;45079.53;5172972;27;20429;-59
2023/05/01 01:51:50;;;;;;;5.83;3.97;;;;;;;-143.84;42.62;45052.88;5173019;27;20433;-59
2023/05/01 01:54:22;;;;;;;3.73;3.40;;;;;;;-143.84;42.64;45070.00;5172985;27;20532;-59
2023/05/01 01:56:50;;;;;;;8.53;2.90;;;;;;;-143.84;42.19;45062.41;5173288;27;21296;-59
2023/05/01 01:59:20;;;;;;;8.53;4.30;;;;;;;-143.84;42.32;45066.22;5172889;27;20440;-60
2023/05/01 02:01:49;;;;;;;4.60;3.30;;;;;;;-143.84;42.04;45081.44;5172847;27;20432;-59
2023/05/01 02:04:19;;;;;;;3.83;3.13;;;;;;;-143.84;41.73;45071.91;5172808;27;20842;-59
2023/05/01 02:06:48;;;;;;;3.23;3.00;;;;;;;-143.84;41.65;45087.16;5172606;27;20485;-59
2023/05/01 02:09:19;;;;;;;6.57;3.07;;;;;;;-143.84;41.58;45081.44;5172623;27;20508;-59
2023/05/01 02:11:48;;;;;;;3.83;2.93;;;;;;;-143.84;41.28;45087.16;5172742;27;20436;-59
2023/05/01 02:14:16;;;;;;;6.30;2.73;;;;;;;-143.84;41.31;45056.69;5172378;27;20520;-59
2023/05/01 02:16:45;;;;;;;11.00;3.47;;;;;;;-143.84;41.50;45077.63;5172729;27;20437;-59
2023/05/01 02:19:14;;;;;;;6.37;3.00;;;;;;;-143.84;41.52;45068.13;5172639;27;20430;-59
2023/05/01 02:21:44;;;;;;;4.23;3.10;;;;;;;-143.84;41.71;45087.16;5172307;27;20486;-59
2023/05/01 02:24:13;;;;;;;7.30;3.60;;;;;;;-143.84;41.66;45079.53;5172226;27;20546;-59
2023/05/01 02:26:43;;;;;;;6.13;3.03;;;;;;;-143.84;41.56;45062.41;5172338;27;20448;-59
2023/05/01 02:29:10;;;;;;;5.37;2.90;;;;;;;-143.84;41.59;45085.25;5172664;27;20432;-59
2023/05/01 02:31:38;;;;;;;7.33;2.67;;;;;;;-143.84;41.25;45071.91;5169643;27;20998;-59
2023/05/01 02:34:05;;;;;;;4.23;2.83;;;;;;;-143.84;41.22;45079.53;5172150;27;20793;-60
2023/05/01 02:36:32;;;;;;;5.67;2.93;;;;;;;-143.84;40.81;45060.50;5172118;27;20426;-59
2023/05/01 02:39:02;;;;;;;7.00;2.57;;;;;;;-143.84;40.19;45073.81;5172035;27;20433;-59
2023/05/01 02:41:33;;;;;;;3.27;2.60;;;;;;;-143.84;39.39;45071.91;5172150;27;20441;-59
2023/05/01 02:44:03;;;;;;;7.93;2.37;;;;;;;-143.84;38.88;45068.13;5172139;27;20478;-59
2023/05/01 02:46:32;;;;;;;3.73;2.17;;;;;;;-143.84;38.75;45081.44;5171643;27;20487;-59
2023/05/01 02:49:00;;;;;;;3.83;2.87;;;;;;;-143.84;38.71;45136.66;5171891;27;20424;-59
2023/05/01 02:51:30;;;;;;;2.80;2.07;;;;;;;-143.84;38.93;45075.72;5172084;27;20481;-59
2023/05/01 02:53:58;;;;;;;4.53;2.37;;;;;;;-143.84;39.10;45066.22;5171419;27;20505;-60
2023/05/01 02:56:28;;;;;;;7.07;3.10;;;;;;;-143.84;39.26;45077.63;5172212;27;20456;-59
2023/05/01 02:58:55;;;;;;;4.97;2.23;;;;;;;-143.84;39.20;45087.16;5172064;27;20440;-59
2023/05/01 03:01:22;;;;;;;2.73;2.40;;;;;;;-143.84;38.41;45083.34;5171844;27;20839;-59
2023/05/01 03:03:50;;;;;;;6.23;1.90;;;;;;;-143.84;38.41;45066.22;5171894;27;20469;-59
2023/05/01 03:06:18;;;;;;;3.20;2.27;;;;;;;-143.84;37.98;45060.50;5171697;27;20467;-59
2023/05/01 03:08:46;;;;;;;4.73;2.10;;;;;;;-143.84;37.71;45056.69;5171793;27;20445;-59
2023/05/01 03:11:14;;;;;;;3.10;1.93;;;;;;;-143.84;37.66;45073.81;5171623;27;20444;-59
2023/05/01 03:13:43;;;;;;;2.57;2.37;;;;;;;-143.84;37.73;45071.91;5171396;27;20448;-59
2023/05/01 03:16:10;;;;;;;5.20;2.23;;;;;;;-143.84;38.45;45077.63;5171508;27;21002;-59
2023/05/01 03:18:37;;;;;;;4.63;2.23;;;;;;;-143.84;38.44;45056.69;5171640;27;20438;-60
2023/05/01 03:21:05;;;;;;;4.03;2.90;;;;;;;-143.84;38.49;45073.81;5171540;27;20421;-59
2023/05/01 03:23:32;;;;;;;2.20;2.00;;;;;;;-143.84;38.07;45077.63;5171242;27;20534;-59
2023/05/01 03:25:59;;;;;;;6.10;2.00;;;;;;;-143.84;38.07;45062.41;5171145;27;20520;-60
2023/05/01 03:28:26;;;;;;;8.37;2.53;;;;;;;-143.84;37.95;45079.53;5170790;27;20432;-60
2023/05/01 03:30:54;;;;;;;3.17;2.00;;;;;;;-143.84;38.31;45045.25;5171259;27;20498;-60
2023/05/01 03:33:22;;;;;;;4.50;1.87;;;;;;;-143.84;38.38;45070.00;5171162;27;20476;-59
2023/05/01 03:35:49;;;;;;;2.40;2.20;;;;;;;-143.84;38.15;45079.53;5171677;27;20845;-60
2023/05/01 03:38:16;;;;;;;2.70;2.50;;;;;;;-143.84;37.78;45077.63;5171379;27;20517;-59
2023/05/01 03:40:43;;;;;;;2.10;2.00;;;;;;;-143.84;37.23;45056.69;5164030;27;20453;-60
2023/05/01 03:43:10;;;;;;;6.60;2.60;;;;;;;-143.84;36.40;45073.81;5152679;27;20477;-60
2023/05/01 03:45:37;;;;;;;8.70;2.47;;;;;;;-143.84;35.56;45035.75;5150478;27;20807;-59
2023/05/01 03:48:06;;;;;;;3.00;2.03;;;;;;;-143.84;35.24;45050.97;5166494;27;20962;-60
2023/05/01 03:50:33;;;;;;;3.00;2.10;;;;;;;-143.84;35.76;45020.50;5171431;27;20476;-59
2023/05/01 03:53:00;;;;;;;3.57;2.27;;;;;;;-143.84;35.14;45077.63;5171348;27;20439;-59
2023/05/01 03:55:27;;;;;;;2.93;2.40;;;;;;;-143.84;34.80;45035.75;5171076;27;20480;-59
2023/05/01 03:57:54;;;;;;;2.47;1.80;;;;;;;-143.84;34.85;45073.81;5171277;27;20524;-59
2023/05/01 04:00:21;;;;;;;3.90;1.90;;;;;;;-143.84;35.02;45045.25;5171345;27;20504;-60
2023/05/01 04:02:48;;;;;;;9.60;1.87;;;;;;;-143.84;35.13;45041.44;5171321;27;20525;-59
2023/05/01 04:05:17;;;;;;;3.70;2.07;;;;;;;-143.84;35.08;45043.34;5171293;27;20441;-60
2023/05/01 04:07:44;;;;;;;2.47;1.50;;;;;;;-143.84;34.89;45050.97;5170689;27;20437;-59
2023/05/01 04:10:12;;;;;;;3.43;1.67;;;;;;;-143.84;34.54;45050.97;5169005;27;20440;-67
2023/05/01 04:12:39;;;;;;;5.43;2.00;;;;;;;-143.84;35.01;45039.53;5149900;27;20458;-65
2023/05/01 04:15:08;;;;;;;2.13;1.73;;;;;;;-143.84;35.14;45054.78;5149986;27;20467;-65
2023/05/01 04:17:36;;;;;;;5.30;1.70;;;;;;;-143.84;35.17;45050.97;5149988;27;20442;-66
2023/05/01 04:20:04;;;;;;;2.53;1.87;;;;;;;-143.84;35.02;45064.31;5150229;27;20452;-65
2023/05/01 04:22:32;;;;;;;2.77;1.83;;;;;;;-143.84;35.43;45037.66;5150150;27;20445;-65
2023/05/01 04:25:00;;;;;;;2.57;1.53;;;;;;;-143.84;35.53;45037.66;5150064;27;20978;-65
2023/05/01 04:27:27;;;;;;;3.80;1.57;;;;;;;-143.84;35.70;45054.78;5149801;27;20429;-65
2023/05/01 04:29:54;;;;;;;2.43;1.60;;;;;;;-143.84;35.48;45056.69;5150165;27;20509;-65
2023/05/01 04:32:21;;;;;;;4.70;1.80;;;;;;;-143.84;35.56;45041.44;5150087;27;20932;-65
2023/05/01 04:34:48;;;;;;;8.40;2.10;;;;;;;-143.84;35.70;45045.25;5149781;27;20489;-65
2023/05/01 04:37:16;;;;;;;3.40;1.77;;;;;;;-143.84;35.65;45031.94;5149621;27;20449;-65
2023/05/01 04:39:45;;;;;;;2.57;1.90;;;;;;;-143.84;35.08;45049.06;5149829;27;20448;-65
2023/05/01 04:42:12;;;;;;;1.67;1.57;;;;;;;-143.84;34.85;45056.69;5152941;27;20441;-66
2023/05/01 04:44:39;;;;;;;6.40;1.87;;;;;;;-143.84;34.70;45077.63;5153443;27;20990;-65
2023/05/01 04:47:06;;;;;;;14.63;1.97;;;;;;;-143.84;34.56;45028.13;5153552;27;20542;-65
2023/05/01 04:49:33;;;;;;;1.17;1.07;;;;;;;-143.84;33.38;45026.22;5153219;27;20445;-65
2023/05/01 04:52:00;;;;;;;1.90;1.77;;;;;;;-143.84;33.25;45022.41;5153342;27;20442;-66
2023/05/01 04:54:27;;;;;;;3.30;1.40;;;;;;;-143.84;31.89;45009.09;5153133;27;20526;-66
2023/05/01 04:56:56;;;;;;;1.40;1.30;;;;;;;-143.84;31.40;45001.47;5153194;27;20924;-65
2023/05/01 04:59:23;;;;;;;13.23;2.37;;;;;;;-143.84;30.58;44991.94;5153041;27;20445;-66
2023/05/01 05:01:50;;;;;;;1.50;1.40;;;;;;;-143.84;29.93;45001.47;5153299;27;20440;-65
2023/05/01 05:04:17;;;;;;;3.77;1.67;;;;;;;-143.84;28.73;45009.09;5152884;27;20490;-66
2023/05/01 05:06:44;;;;;;;10.13;1.97;;;;;;;-143.84;29.81;45010.97;5153026;27;20440;-66
2023/05/01 05:09:12;;;;;;;5.77;1.50;;;;;;;-143.84;30.01;44984.31;5153149;27;20846;-66
2023/05/01 05:11:40;;;;;;;7.20;2.03;;;;;;;-143.84;29.07;44990.03;5152977;27;20432;-66
2023/05/01 05:14:08;;;;;;;3.77;2.30;;;;;;;-143.84;29.76;44984.31;5153112;27;20435;-66
2023/05/01 05:16:35;;;;;;;6.83;1.93;;;;;;;-143.84;30.05;44991.94;5153075;27;20444;-65
2023/05/01 05:19:02;;;;;;;3.00;1.83;;;;;;;-143.84;30.04;44978.63;5152688;27;20447;-66
2023/05/01 05:21:30;;;;;;;1.63;1.33;;;;;;;-143.84;30.71;44990.03;5152867;27;20507;-65
2023/05/01 05:23:57;;;;;;;4.60;2.07;;;;;;;-143.84;30.64;45007.19;5152588;27;20510;-65
2023/05/01 05:26:26;;;;;;;2.67;1.70;;;;;;;-143.84;29.96;45012.88;5152724;27;20434;-65
2023/05/01 05:28:53;;;;;;;8.93;2.10;;;;;;;-143.84;30.76;44988.13;5152889;27;20470;-65
2023/05/01 05:31:22;;;;;;;3.03;1.80;;;;;;;-143.84;30.25;44974.81;5152578;27;20458;-65
2023/05/01 05:33:49;;;;;;;3.63;1.73;;;;;;;-143.84;28.67;45026.22;5152623;27;20555;-65
2023/05/01 05:36:16;;;;;;;4.70;1.60;;;;;;;-143.84;29.07;44988.13;5152569;27;20470;-65
2023/05/01 05:38:43;;;;;;;2.90;1.80;;;;;;;-143.84;28.06;44969.09;5152540;27;20433;-65
2023/05/01 05:41:10;;;;;;;2.83;1.90;;;;;;;-143.84;28.14;45014.78;5152568;27;20864;-64
2023/05/01 05:43:38;;;;;;;5.63;1.70;;;;;;;-143.84;27.45;44984.31;5152592;27;20485;-65
2023/05/01 05:46:05;;;;;;;5.80;1.70;;;;;;;-143.84;28.33;44982.41;5152433;27;20463;-65
2023/05/01 05:48:34;;;;;;;3.10;2.10;;;;;;;-143.84;27.10;44976.72;5152290;27;20545;-66
2023/05/01 05:51:01;;;;;;;3.37;1.97;;;;;;;-143.84;27.96;44969.09;5151706;27;20430;-65
2023/05/01 05:53:28;;;;;;;1.57;1.43;;;;;;;-143.84;28.20;44967.19;5152047;27;21028;-65
2023/05/01 05:55:55;;;;;;;4.00;2.00;;;;;;;-143.84;27.45;44984.31;5151446;27;20438;-65
2023/05/01 05:58:23;;;;;;;3.47;2.27;;;;;;;-143.84;26.77;44946.25;5150819;27;20739;-66
2023/05/01 06:00:51;;;;;;;5.90;1.57;;;;;;;-143.84;27.50;44946.25;5151337;27;20438;-65
2023/05/01 06:03:19;;;;;;;8.33;1.83;;;;;;;-143.84;26.95;44980.53;5151050;27;20992;-65
2023/05/01 06:05:47;;;;;;;3.73;2.40;;;;;;;-143.84;28.40;44963.38;5151324;27;20433;-65
2023/05/01 06:08:15;;;;;;;5.67;2.40;;;;;;;-143.84;28.56;44950.06;5151965;27;20446;-65
2023/05/01 06:10:43;;;;;;;6.00;2.87;;;;;;;-143.84;28.24;44967.19;5151757;27;20491;-65
2023/05/01 06:13:12;;;;;;;5.03;2.40;;;;;;;-143.84;27.72;44967.19;5151736;27;20450;-65
2023/05/01 06:15:40;;;;;;;5.83;2.70;;;;;;;-143.84;28.56;44948.16;5151794;27;20447;-65
2023/05/01 06:18:07;;;;;;;8.30;2.77;;;;;;;-143.84;28.28;44965.28;5151515;27;20970;-65
2023/05/01 06:20:34;;;;;;;9.13;2.83;;;;;;;-143.84;27.33;44976.72;5151653;27;20482;-65
2023/05/01 06:23:03;;;;;;;4.60;3.00;;;;;;;-143.84;27.85;44944.34;5151537;27;20472;-65
2023/05/01 06:25:32;;;;;;;3.10;2.90;;;;;;;-143.84;27.16;44946.25;5151516;27;20570;-64
2023/05/01 06:28:00;;;;;;;6.57;3.27;;;;;;;-143.84;26.65;44976.72;5151477;27;20500;-65
2023/05/01 06:30:27;;;;;;;4.50;2.67;;;;;;;-143.84;27.14;44972.91;5151345;27;20451;-65
2023/05/01 06:32:54;;;;;;;7.90;2.50;;;;;;;-143.84;27.19;44988.13;5151221;27;20841;-66
2023/05/01 06:35:21;;;;;;;8.57;3.10;;;;;;;-143.84;26.31;44921.50;5151650;27;20558;-65
2023/05/01 06:37:48;;;;;;;14.70;3.57;;;;;;;-143.84;27.76;44965.28;5151722;27;20507;-66
2023/05/01 06:40:17;;;;;;;7.53;2.90;;;;;;;-143.84;26.54;44942.44;5151512;27;20432;-65
2023/05/01 06:42:44;;;;;;;6.27;3.13;;;;;;;-143.84;26.24;44934.81;5151351;27;20457;-66
2023/05/01 06:45:11;;;;;;;5.40;2.80;;;;;;;-143.84;26.58;44957.66;5132799;27;20483;-67
2023/05/01 06:47:38;;;;;;;11.37;4.33;;;;;;;-143.84;26.50;44940.53;5151608;27;20434;-65
2023/05/01 06:50:07;;;;;;;8.50;3.33;;;;;;;-143.84;27.10;44957.66;5151020;27;20813;-64
2023/05/01 06:52:34;;;;;;;3.30;2.90;;;;;;;-143.84;26.05;44971.00;5151514;27;20429;-65
2023/05/01 06:55:02;;;;;;;6.50;2.93;;;;;;;-143.84;26.47;44951.97;5137207;27;20536;-65
2023/05/01 06:57:31;;;;;;;6.10;3.10;;;;;;;-143.84;26.70;44959.56;5130171;27;20493;-66
2023/05/01 06:59:58;;;;;;;8.80;3.67;;;;;;;-143.84;27.69;44944.34;5130045;27;20441;-65
2023/05/01 07:02:25;;;;;;;3.97;3.30;;;;;;;-143.84;26.74;44946.25;5129855;27;20438;-66
2023/05/01 07:04:53;;;;;;;2.63;2.10;;;;;;;-143.84;26.00;44940.53;5129210;27;20568;-65
2023/05/01 07:07:20;;;;;;;3.47;2.30;;;;;;;-143.84;25.42;44946.25;5129839;27;20448;-66
2023/05/01 07:09:47;;;;;;;1.70;1.60;;;;;;;-143.84;24.69;44934.81;5129735;27;20433;-65
2023/05/01 07:12:15;;;;;;;2.07;1.87;;;;;;;-143.84;23.91;44929.09;5129906;27;20442;-66
2023/05/01 07:14:43;;;;;;;2.27;1.33;;;;;;;-143.84;24.75;44913.88;5129919;27;20497;-66
2023/05/01 07:17:10;;;;;;;5.10;1.80;;;;;;;-143.84;24.97;44993.84;5129887;27;20440;-65
2023/05/01 07:19:37;;;;;;;5.63;2.60;;;;;;;-143.84;24.67;44904.34;5129909;27;20447;-66
2023/05/01 07:22:04;;;;;;;5.87;2.90;;;;;;;-143.84;25.44;44908.16;5129818;27;20842;-66
2023/05/01 07:24:31;;;;;;;3.33;2.40;;;;;;;-143.84;25.35;44925.31;5129745;27;20480;-66
2023/05/01 07:26:59;;;;;;;6.37;2.37;;;;;;;-143.84;25.96;44953.88;5129862;27;20513;-66
2023/05/01 07:29:26;;;;;;;5.10;2.53;;;;;;;-143.84;25.68;44991.94;5129775;28;20449;-66
2023/05/01 07:31:55;;;;;;;2.90;2.60;;;;;;;-143.84;25.60;44948.16;5129897;28;20512;-66
2023/05/01 07:34:22;;;;;;;2.50;2.30;;;;;;;-143.84;25.83;44965.28;5129957;28;20435;-66
2023/05/01 07:36:49;;;;;;;6.87;3.70;;;;;;;-143.84;25.78;44915.78;5129777;28;20925;-66
2023/05/01 07:39:17;;;;;;;4.70;2.80;;;;;;;-143.84;26.68;44982.41;5129554;28;20948;-65
2023/05/01 07:41:44;;;;;;;5.47;3.40;;;;;;;-143.84;25.95;44931.00;5129637;28;20987;-65
2023/05/01 07:44:11;;;;;;;6.43;2.80;;;;;;;-143.84;26.90;44999.56;5129756;28;20535;-66
2023/05/01 07:46:38;;;;;;;2.83;2.57;;;;;;;-143.84;26.73;44965.28;5129588;28;20980;-66
2023/05/01 07:49:07;;;;;;;4.93;2.70;;;;;;;-143.84;27.89;44961.47;5129690;28;20431;-66
2023/05/01 07:51:34;;;;;;;4.10;2.40;;;;;;;-143.84;27.60;44959.56;5129397;28;20520;-66
2023/05/01 07:54:03;;;;;;;3.77;2.60;;;;;;;-143.84;27.23;44948.16;5134540;27;20480;-65
2023/05/01 07:56:30;;;;;;;8.17;2.20;;;;;;;-143.84;26.39;44955.75;5150399;27;20459;-65
2023/05/01 07:58:58;;;;;;;4.73;1.97;;;;;;;-143.84;26.52;44961.47;5150046;27;20444;-65
2023/05/01 08:01:25;;;;;;;4.10;2.40;;;;;;;-143.84;26.65;44942.44;5150070;27;20949;-65
2023/05/01 08:03:52;;;;;;;5.77;2.13;;;;;;;-143.84;26.42;44971.00;5150103;27;20529;-64
2023/05/01 08:06:21;;;;;;;4.77;2.10;;;;;;;-143.84;26.77;44950.06;5150022;27;20494;-65
2023/05/01 08:08:48;;;;;;;8.13;2.10;;;;;;;-143.84;26.64;44965.28;5149960;27;20788;-65
2023/05/01 08:11:15;;;;;;;4.33;1.70;;;;;;;-143.84;26.18;44953.88;5149426;27;20438;-66
2023/05/01 08:13:42;;;;;;;5.07;1.70;;;;;;;-143.84;26.76;44988.13;5149438;27;20514;-66
2023/05/01 08:16:09;;;;;;;4.57;2.40;;;;;;;-143.84;27.23;44965.28;5153258;27;20445;-66
2023/05/01 08:18:36;;;;;;;4.13;2.07;;;;;;;-143.84;26.28;44967.19;5153966;27;20433;-66
2023/05/01 08:21:04;;;;;;;2.90;2.20;;;;;;;-143.84;26.56;44955.75;5154154;27;20426;-66
2023/05/01 08:23:32;;;;;;;2.50;1.40;;;;;;;-143.84;26.52;44972.91;5153683;27;20504;-64
2023/05/01 08:25:59;;;;;;;6.00;2.03;;;;;;;-143.84;26.78;44976.72;5153782;27;20477;-64
2023/05/01 08:28:27;;;;;;;7.40;2.00;;;;;;;-143.84;26.71;44980.53;5153527;27;20433;-64
2023/05/01 08:30:54;;;;;;;5.23;1.77;;;;;;;-143.84;26.20;44980.53;5155271;27;20513;-64
2023/05/01 08:33:21;;;;;;;4.30;1.73;;;;;;;-143.84;27.07;44957.66;5153914;27;20437;-63
2023/05/01 08:35:50;;;;;;;8.57;2.30;;;;;;;-143.84;25.83;44982.41;5154256;27;20446;-64
2023/05/01 08:38:17;;;;;;;10.87;1.93;;;;;;;-143.84;26.11;44988.13;5153932;27;20449;-63
2023/05/01 08:40:51;;;;;;;2.30;1.90;;;;;;;-143.84;26.03;44963.38;5153671;27;20507;-64
2023/05/01 08:43:18;;;;;;;5.53;1.77;;;;;;;-143.84;26.83;44978.63;5153341;27;20434;-64
2023/05/01 08:45:47;;;;;;;6.57;2.10;;;;;;;-143.84;28.09;44974.81;5153491;27;20481;-64
2023/05/01 08:48:17;;;;;;;7.77;3.90;;;;;;;-143.84;27.52;44965.28;5153527;27;20441;-63
2023/05/01 08:50:47;;;;;;;5.07;3.10;;;;;;;-143.84;27.13;44976.72;5153503;27;20445;-63
2023/05/01 08:53:16;;;;;;;6.13;2.27;;;;;;;-143.84;27.54;44963.38;5153614;27;20481;-63
2023/05/01 08:55:46;;;;;;;3.73;1.90;;;;;;;-143.84;26.66;44963.38;5152986;27;20478;-63
2023/05/01 08:58:14;;;;;;;3.50;1.50;;;;;;;-143.84;26.33;44965.28;5153256;27;20951;-63
2023/05/01 09:00:43;;;;;;;2.20;1.70;;;;;;;-143.84;26.48;44965.28;5153417;27;20573;-63
2023/05/01 09:03:12;;;;;;;1.93;1.50;;;;;;;-143.84;26.17;44959.56;5153038;27;20944;-63
2023/05/01 09:05:39;;;;;;;2.53;1.50;;;;;;;-143.84;25.89;44974.81;5153260;27;20473;-64
2023/05/01 09:08:06;;;;;;;2.27;1.67;;;;;;;-143.84;26.51;44976.72;5152968;27;20931;-65
2023/05/01 09:10:39;;;;;;;4.60;1.73;;;;;;;-143.84;26.53;44969.09;5163483;27;20480;-65
2023/05/01 09:13:08;;;;;;;3.13;1.50;;;;;;;-143.84;27.05;44988.13;5173699;27;20452;-64
2023/05/01 09:15:36;;;;;;;26.17;2.50;;;;;;;-143.84;27.51;44969.09;5173690;27;20437;-65
2023/05/01 09:18:03;;;;;;;3.63;1.27;;;;;;;-143.84;26.61;44963.38;5173969;27;20820;-63
2023/05/01 09:20:31;;;;;;;3.73;2.17;;;;;;;-143.84;27.51;44971.00;5173520;27;20432;-64
2023/05/01 09:22:59;;;;;;;3.77;1.60;;;;;;;-143.84;27.96;44974.81;5173627;27;20455;-64
2023/05/01 09:25:26;;;;;;;1.60;1.50;;;;;;;-143.84;27.79;44972.91;5173154;27;20867;-66
2023/05/01 09:27:55;;;;;;;4.60;2.07;;;;;;;-143.84;26.68;44955.75;5173155;27;20436;-63
2023/05/01 09:30:35;;;;;;;2.20;2.00;;;;;;;-143.84;26.99;44959.56;5173610;27;20835;-65
2023/05/01 09:33:09;;;;;;;1.63;1.30;;;;;;;-143.84;26.86;44955.75;5173350;27;20436;-66
2023/05/01 09:35:52;;;;;;;10.17;2.00;;;;;;;-143.84;27.08;44959.56;5173360;27;20432;-64
2023/05/01 09:38:21;;;;;;;8.83;2.23;;;;;;;-143.84;27.37;44925.31;5170914;27;20441;-65
2023/05/01 09:40:48;;;;;;;2.30;2.00;;;;;;;-143.84;27.45;44965.28;5173207;27;20437;-65
2023/05/01 09:43:25;;;;;;;2.97;1.90;;;;;;;-143.84;27.58;44961.47;5173311;27;20489;-63
2023/05/01 09:46:06;;;;;;;10.50;2.00;;;;;;;-143.84;26.91;44961.47;5172941;27;20477;-66
2023/05/01 09:48:33;;;;;;;3.77;1.67;;;;;;;-143.84;26.54;44965.28;5162634;27;20494;-63
2023/05/01 09:51:00;;;;;;;2.13;1.93;;;;;;;-143.84;27.31;44982.41;5168373;27;20461;-63
2023/05/01 09:53:40;;;;;;;17.67;2.20;;;;;;;-143.84;28.62;44961.47;5172131;27;20440;-62
2023/05/01 09:56:09;;;;;;;3.80;2.00;;;;;;;-143.84;27.52;44972.91;5155663;27;20465;-63
2023/05/01 09:58:36;;;;;;;4.23;1.40;;;;;;;-143.84;27.07;44984.31;5152175;27;20437;-63
2023/05/01 10:01:05;;;;;;;4.77;2.50;;;;;;;-143.84;27.32;44953.88;5152192;27;20434;-63
2023/05/01 10:03:33;;;;;;;4.10;2.57;;;;;;;-143.84;27.01;44974.81;5151932;27;20506;-63
2023/05/01 10:06:02;;;;;;;9.90;4.17;;;;;;;-143.84;27.24;44942.44;5151766;27;20477;-63
2023/05/01 10:08:44;;;;;;;3.83;2.10;;;;;;;-143.84;27.38;44965.28;5151689;27;20437;-63
2023/05/01 10:11:12;;;;;;;13.77;3.43;;;;;;;-143.84;28.36;44953.88;5151828;27;20516;-66
2023/05/01 10:13:39;;;;;;;11.63;4.20;;;;;;;-143.84;26.98;44972.91;5152067;27;20445;-63
2023/05/01 10:16:27;;;;;;;3.07;2.20;;;;;;;-143.84;27.82;44980.53;5150836;27;20441;-66
2023/05/01 10:18:56;;;;;;;2.53;1.63;;;;;;;-143.84;27.81;44982.41;5150992;27;20441;-64
2023/05/01 10:21:23;;;;;;;2.03;1.80;;;;;;;-143.84;27.39;44976.72;5151019;27;20525;-63
2023/05/01 10:23:52;;;;;;;2.07;1.70;;;;;;;-143.84;27.24;44972.91;5150686;27;20506;-63
2023/05/01 10:26:19;;;;;;;2.30;1.90;;;;;;;-143.84;28.01;44976.72;5150840;27;20834;-65
2023/05/01 10:28:49;;;;;;;1.73;1.50;;;;;;;-143.84;28.08;44969.09;5154200;27;20441;-64
2023/05/01 10:31:17;;;;;;;4.27;1.70;;;;;;;-143.84;28.10;44995.75;5171997;27;20451;-64
2023/05/01 10:33:45;;;;;;;6.70;3.13;;;;;;;-143.84;28.25;44999.56;5172245;27;20869;-64
2023/05/01 10:36:19;;;;;;;3.90;1.70;;;;;;;-143.84;28.48;44969.09;5172448;27;21268;-64
2023/05/01 10:38:47;;;;;;;6.47;3.97;;;;;;;-143.84;29.32;44959.56;5172248;27;20502;-64
2023/05/01 10:41:15;;;;;;;4.53;2.20;;;;;;;-143.84;30.16;44957.66;5171938;27;20443;-64
2023/05/01 10:43:43;;;;;;;3.80;1.60;;;;;;;-143.84;31.04;44988.13;5171934;27;20439;-64
2023/05/01 10:46:39;;;;;;;2.27;1.67;;;;;;;-143.84;29.80;44988.13;5171798;27;21075;-64
2023/05/01 10:49:06;;;;;;;2.37;1.77;;;;;;;-143.84;30.15;44990.03;5111477;27;20507;-64
2023/05/01 10:51:33;;;;;;;4.43;4.00;;;;;;;-143.84;28.83;44993.84;5171832;27;20436;-64
2023/05/01 10:54:27;;;;;;;2.30;1.70;;;;;;;-143.84;27.94;44999.56;5171597;27;20483;-64
2023/05/01 10:56:57;;;;;;;4.57;1.53;;;;;;;-143.84;27.27;44995.75;5150447;27;20443;-64
2023/05/01 10:59:24;;;;;;;3.70;1.70;;;;;;;-143.84;29.85;44999.56;5150591;27;20439;-64
2023/05/01 11:01:54;;;;;;;7.30;1.83;;;;;;;-143.84;28.62;44993.84;5150810;27;20440;-63
2023/05/01 11:04:49;;;;;;;10.17;1.60;;;;;;;-143.84;30.81;44986.22;5153224;27;20436;-64
2023/05/01 11:07:18;;;;;;;1.83;1.63;;;;;;;-143.84;29.95;44988.13;5158039;27;20455;-64
2023/05/01 11:09:47;;;;;;;3.70;2.70;;;;;;;-143.84;30.70;44991.94;5171490;27;20518;-64
2023/05/01 11:12:16;;;;;;;2.50;2.03;;;;;;;-143.84;27.52;44988.13;5166920;27;20441;-64
2023/05/01 11:15:02;;;;;;;4.13;1.93;;;;;;;-143.84;28.41;44997.66;5150900;27;21309;-64
2023/05/01 11:17:48;;;;;;;9.40;2.27;;;;;;;-143.84;28.42;44974.81;5150818;27;20502;-64
2023/05/01 11:20:49;;;;;;;1.80;1.70;;;;;;;-143.84;28.82;44988.13;5150436;27;20496;-64
2023/05/01 11:23:24;;;;;;;3.17;1.53;;;;;;;-143.84;28.70;44967.19;5150617;27;20509;-63
2023/05/01 11:26:03;;;;;;;12.90;1.87;;;;;;;-143.84;28.50;44974.81;5150400;27;20575;-63